Time;durP1;ratioP1;P1;durP2;ratioP2;P2;SDS_P1;SDS_P2;PMS_P1;PMS_P2;Temp;Humidity;BMP_temperature;BMP_pressure;BME280_temperature;BME280_humidity;BME280_pressure;Samples;Min_cycle;Max_cycle;Signal;HPM_P1;HPM_P2
2022/05/14 00:02:11;;;;;;;2.17;1.10;;;;;;;12.27;38.28;101268.34;1960417;73;21113;-62
2022/05/14 00:04:40;;;;;;;1.75;0.93;;;;;;;12.26;38.28;101263.97;1960720;73;21027;-62
2022/05/14 00:07:08;;;;;;;3.37;1.35;;;;;;;12.26;38.30;101264.44;1960694;73;21023;-62
2022/05/14 00:09:37;;;;;;;7.03;1.00;;;;;;;12.24;38.30;101262.32;1958232;73;21477;-62
2022/05/14 00:14:53;;;;;;;5.78;1.10;;;;;;;12.18;38.29;101250.21;1960629;73;21049;-61
2022/05/14 00:17:22;;;;;;;0.37;0.37;;;;;;;12.18;38.25;101253.32;1960628;73;21023;-61
2022/05/14 00:19:50;;;;;;;1.47;0.90;;;;;;;12.17;38.19;101253.75;1958140;73;21023;-62
2022/05/14 00:22:19;;;;;;;3.87;0.90;;;;;;;12.16;38.29;101266.57;1893422;76;21034;-61
2022/05/14 00:24:48;;;;;;;3.98;0.90;;;;;;;12.11;38.37;101260.13;1893337;76;21074;-61
2022/05/14 00:27:16;;;;;;;1.52;0.62;;;;;;;12.09;38.40;101256.69;1910125;73;21014;-61
2022/05/14 00:29:45;;;;;;;9.60;1.05;;;;;;;12.09;38.25;101249.23;1960630;73;21089;-61
2022/05/14 00:32:13;;;;;;;6.17;1.27;;;;;;;12.10;38.21;101253.61;1958018;73;21088;-62
2022/05/14 00:34:42;;;;;;;2.85;1.42;;;;;;;12.11;38.26;101256.64;1960745;73;21050;-61
2022/05/14 00:37:11;;;;;;;8.20;1.02;;;;;;;12.11;38.17;101250.89;1957683;73;21059;-62
2022/05/14 00:39:40;;;;;;;2.58;1.05;;;;;;;12.12;38.15;101251.77;1903987;75;21029;-62
2022/05/14 00:42:09;;;;;;;4.92;1.32;;;;;;;12.10;38.13;101250.97;1906215;74;21488;-61
2022/05/14 00:44:37;;;;;;;2.30;0.90;;;;;;;12.09;38.19;101242.64;1903963;75;21045;-61
2022/05/14 00:47:09;;;;;;;3.30;1.10;;;;;;;12.09;38.22;101247.91;1903940;75;21092;-61
2022/05/14 00:49:38;;;;;;;5.22;1.10;;;;;;;12.09;38.27;101251.41;1934037;74;21045;-61
2022/05/14 00:52:10;;;;;;;2.95;1.37;;;;;;;12.07;38.30;101249.28;1937528;74;21042;-62
2022/05/14 00:54:41;;;;;;;3.67;1.42;;;;;;;12.05;38.35;101248.48;1937671;74;21013;-62
2022/05/14 00:57:14;;;;;;;5.10;1.30;;;;;;;12.03;38.41;101246.37;1937657;74;21080;-62
2022/05/14 00:59:43;;;;;;;2.55;0.90;;;;;;;12.04;38.33;101245.90;1935168;74;21444;-61
2022/05/14 01:02:11;;;;;;;1.57;1.07;;;;;;;12.06;38.22;101243.63;1937652;74;21092;-61
2022/05/14 01:04:42;;;;;;;3.77;1.40;;;;;;;12.08;38.21;101242.22;1937545;74;21519;-61
2022/05/14 01:07:15;;;;;;;5.03;1.02;;;;;;;12.11;38.08;101236.84;1937462;74;21448;-61
2022/05/14 01:09:52;;;;;;;4.60;1.10;;;;;;;12.13;37.93;101236.31;1935056;74;21593;-62
2022/05/14 01:12:23;;;;;;;3.37;0.90;;;;;;;12.15;37.87;101238.44;1937616;74;21080;-61
2022/05/14 01:14:53;;;;;;;12.30;0.95;;;;;;;12.16;37.80;101234.42;1937519;74;21131;-61
2022/05/14 01:17:22;;;;;;;1.05;0.75;;;;;;;12.18;37.83;101234.38;1937726;74;21119;-61
2022/05/14 01:19:51;;;;;;;3.50;0.70;;;;;;;12.16;37.95;101237.53;1926401;74;21048;-61
2022/05/14 01:22:31;;;;;;;2.40;1.15;;;;;;;12.13;38.06;101233.67;1903944;75;21496;-62
2022/05/14 01:28:03;;;;;;;1.90;1.32;;;;;;;12.04;38.25;101237.98;1904047;75;21026;-61
2022/05/14 01:30:33;;;;;;;2.25;1.30;;;;;;;11.77;38.50;101242.02;1906359;74;21095;-61
2022/05/14 01:33:05;;;;;;;2.37;1.20;;;;;;;11.51;38.80;101238.52;1904143;75;21500;-61
2022/05/14 01:35:39;;;;;;;6.95;1.42;;;;;;;11.30;39.00;101246.70;1903680;74;21099;-61
2022/05/14 01:38:08;;;;;;;2.58;0.80;;;;;;;11.09;39.33;101236.43;1904718;74;21492;-62
2022/05/14 01:40:37;;;;;;;1.87;1.07;;;;;;;10.90;39.52;101233.98;1873028;75;21089;-61
2022/05/14 01:43:06;;;;;;;9.45;1.12;;;;;;;10.74;39.74;101241.53;1885889;75;21590;-69
2022/05/14 01:45:35;;;;;;;2.10;0.82;;;;;;;10.59;39.95;101240.24;1869551;75;21041;-63
2022/05/14 01:48:06;;;;;;;2.27;1.10;;;;;;;10.47;40.14;101235.34;1881887;76;21112;-62
2022/05/14 01:50:35;;;;;;;1.90;0.95;;;;;;;10.38;40.29;101237.80;1887270;75;21018;-62
2022/05/14 01:53:04;;;;;;;5.67;2.50;;;;;;;10.31;40.46;101246.35;1885065;76;21050;-73
2022/05/14 01:55:32;;;;;;;3.83;1.45;;;;;;;10.21;40.90;101247.02;1884993;76;21111;-75
2022/05/14 01:58:36;;;;;;;4.35;1.10;;;;;;;10.13;41.34;101241.59;1883194;76;21120;-67
2022/05/14 02:00:33;;;;;;;6.78;2.00;;;;;;;10.07;41.33;101245.70;1880757;76;21164;-65
2022/05/14 02:03:01;;;;;;;2.20;1.40;;;;;;;9.98;42.43;101245.08;1886896;75;21121;-64
2022/05/14 02:05:30;;;;;;;8.65;1.70;;;;;;;9.95;42.44;101246.47;1878282;75;21084;-63
2022/05/14 02:07:59;;;;;;;2.20;1.47;;;;;;;9.90;42.30;101244.41;1854150;76;21034;-64
2022/05/14 02:10:28;;;;;;;3.08;2.00;;;;;;;9.88;42.25;101240.96;1877951;76;21077;-64
2022/05/14 02:12:57;;;;;;;7.60;2.05;;;;;;;9.85;42.18;101235.81;1877054;76;21022;-65
2022/05/14 02:15:26;;;;;;;6.15;1.80;;;;;;;9.80;42.22;101239.02;1905544;74;21134;-65
2022/05/14 02:17:57;;;;;;;2.33;1.30;;;;;;;9.76;42.30;101228.17;1872173;77;21591;-63
2022/05/14 02:20:26;;;;;;;1.80;1.05;;;;;;;9.75;42.46;101229.07;1894054;75;21026;-61
2022/05/14 02:22:55;;;;;;;4.58;1.25;;;;;;;9.76;42.65;101229.49;1895069;75;21019;-61
2022/05/14 02:25:24;;;;;;;6.90;2.10;;;;;;;9.81;42.75;101225.83;1861869;75;21462;-61
2022/05/14 02:27:52;;;;;;;3.33;2.15;;;;;;;9.90;42.86;101218.10;1897173;75;21088;-63
2022/05/14 02:30:22;;;;;;;1.40;1.05;;;;;;;9.99;43.00;101219.62;1891494;75;21058;-61
2022/05/14 02:32:51;;;;;;;1.90;0.88;;;;;;;10.13;43.14;101216.59;1891404;75;21457;-61
2022/05/14 02:35:20;;;;;;;6.35;1.25;;;;;;;10.27;43.29;101214.39;1890586;75;21507;-60
2022/05/14 02:37:48;;;;;;;9.60;1.65;;;;;;;10.43;43.40;101213.52;1890781;75;21034;-60
2022/05/14 02:40:17;;;;;;;14.65;1.10;;;;;;;10.55;43.41;101208.31;1891475;74;21500;-59
2022/05/14 02:42:46;;;;;;;3.50;1.02;;;;;;;10.75;43.56;101207.25;1941151;73;21403;-61
2022/05/14 02:45:15;;;;;;;4.20;1.37;;;;;;;10.95;43.85;101205.25;1939575;73;20991;-59
2022/05/14 02:47:44;;;;;;;1.47;1.00;;;;;;;11.18;44.04;101202.33;1905852;75;21044;-60
2022/05/14 02:50:13;;;;;;;14.33;1.20;;;;;;;11.41;44.15;101198.88;1902918;75;21045;-62
2022/05/14 02:52:42;;;;;;;8.90;2.00;;;;;;;11.68;44.21;101200.14;1877128;76;21043;-59
2022/05/14 02:55:12;;;;;;;2.30;1.32;;;;;;;11.95;44.26;101200.47;1858012;76;21494;-61
2022/05/14 02:57:41;;;;;;;4.60;1.52;;;;;;;12.24;44.10;101194.52;1887854;75;21050;-62
2022/05/14 03:00:13;;;;;;;10.03;1.77;;;;;;;12.56;44.12;101188.46;1959951;73;21019;-62
2022/05/14 03:02:42;;;;;;;11.57;1.70;;;;;;;12.83;44.21;101186.45;1928190;74;21171;-60
2022/05/14 03:05:13;;;;;;;7.85;1.82;;;;;;;13.11;44.34;101183.53;1928119;74;21042;-70
2022/05/14 03:11:35;;;;;;;9.55;1.85;;;;;;;13.27;44.80;101182.86;1899732;71;21128;-60
2022/05/14 03:14:04;;;;;;;9.45;1.45;;;;;;;13.31;44.89;101181.83;1898456;75;21050;-61
2022/05/14 03:16:33;;;;;;;10.45;1.35;;;;;;;13.33;44.92;101181.30;1898461;75;21022;-62
2022/05/14 03:19:01;;;;;;;6.17;1.30;;;;;;;13.43;45.07;101183.95;1898476;75;21039;-62
2022/05/14 03:21:30;;;;;;;7.75;2.90;;;;;;;13.54;45.32;101185.25;1898387;75;21105;-62
2022/05/14 03:23:59;;;;;;;60.30;18.92;;;;;;;13.66;45.54;101187.36;1898421;75;21082;-61
2022/05/14 03:26:28;;;;;;;73.20;25.10;;;;;;;13.78;45.71;101193.43;1862389;77;21016;-59
2022/05/14 03:28:57;;;;;;;19.50;5.80;;;;;;;13.86;45.79;101192.60;1887418;76;21059;-67
2022/05/14 03:31:26;;;;;;;11.53;3.85;;;;;;;13.95;45.77;101190.01;1861376;77;21080;-65
2022/05/14 03:33:55;;;;;;;8.80;3.17;;;;;;;13.92;45.57;101195.91;1887626;76;21031;-64
2022/05/14 03:36:24;;;;;;;8.73;2.05;;;;;;;13.94;45.51;101198.02;1888483;76;21572;-61
2022/05/14 03:38:54;;;;;;;12.45;1.62;;;;;;;14.02;45.49;101198.06;1888951;76;21193;-63
2022/05/14 03:41:23;;;;;;;2.65;1.30;;;;;;;14.12;45.38;101203.78;1889217;76;21038;-65
2022/05/14 03:43:52;;;;;;;3.30;1.50;;;;;;;14.27;45.35;101200.44;1857369;76;21040;-63
2022/05/14 03:46:21;;;;;;;5.97;1.42;;;;;;;14.43;45.23;101201.02;1873731;76;21035;-64
2022/05/14 03:48:50;;;;;;;2.42;1.30;;;;;;;14.59;45.07;101202.05;1862288;77;21036;-64
2022/05/14 03:51:19;;;;;;;3.62;1.32;;;;;;;14.73;44.88;101196.53;1862214;77;21588;-62
2022/05/14 03:53:48;;;;;;;6.58;1.25;;;;;;;14.90;44.55;101201.84;1862396;77;21518;-62
2022/05/14 03:56:17;;;;;;;3.20;1.37;;;;;;;15.08;44.17;101200.55;1862209;77;21150;-62
2022/05/14 03:58:46;;;;;;;4.17;1.32;;;;;;;15.27;43.64;101206.64;1862293;77;21127;-63
2022/05/14 04:01:16;;;;;;;3.10;1.47;;;;;;;15.53;43.35;101208.38;1862359;77;21083;-64
2022/05/14 04:03:45;;;;;;;4.47;1.52;;;;;;;15.82;42.91;101204.22;1862424;77;21126;-62
2022/05/14 04:06:14;;;;;;;8.63;1.67;;;;;;;16.09;42.40;101204.53;1862347;77;21490;-64
2022/05/14 04:08:43;;;;;;;1.87;1.02;;;;;;;16.33;41.39;101205.45;1889272;76;21513;-64
2022/05/14 04:11:12;;;;;;;7.33;1.98;;;;;;;16.56;40.95;101206.35;1859766;76;21088;-64
2022/05/14 04:13:41;;;;;;;1.82;1.07;;;;;;;16.85;40.81;101205.64;1856615;77;21068;-63
2022/05/14 04:16:09;;;;;;;5.30;2.05;;;;;;;17.18;40.58;101197.00;1856448;77;21142;-66
2022/05/14 04:18:39;;;;;;;8.38;1.52;;;;;;;17.51;40.42;101201.73;1856655;77;21004;-64
2022/05/14 04:21:08;;;;;;;7.95;1.80;;;;;;;17.86;40.11;101202.25;1856825;77;21486;-63
2022/05/14 04:23:38;;;;;;;6.10;1.55;;;;;;;18.22;39.89;101202.69;1856649;77;21515;-62
2022/05/14 04:26:07;;;;;;;6.92;2.60;;;;;;;18.56;39.64;101208.52;1856674;77;21142;-64
2022/05/14 04:28:37;;;;;;;13.60;2.35;;;;;;;18.85;39.56;101199.94;1856432;77;21072;-64
2022/05/14 04:31:06;;;;;;;12.93;2.17;;;;;;;19.22;39.41;101198.34;1856714;77;21162;-63
2022/05/14 04:33:36;;;;;;;7.67;2.15;;;;;;;19.52;39.11;101203.86;1856707;77;21154;-64
2022/05/14 04:36:06;;;;;;;14.70;2.62;;;;;;;19.78;38.92;101199.87;1856610;77;21084;-63
2022/05/14 04:38:35;;;;;;;6.30;2.27;;;;;;;20.05;38.77;101208.61;1856927;77;21032;-65
2022/05/14 04:41:04;;;;;;;14.10;2.35;;;;;;;20.34;38.67;101208.80;1856722;77;21073;-64
2022/05/14 04:43:34;;;;;;;9.55;3.05;;;;;;;20.60;38.33;101210.46;1856525;77;21069;-63
2022/05/14 04:46:07;;;;;;;6.60;2.45;;;;;;;20.83;38.09;101214.58;1856590;77;21572;-64
2022/05/14 04:48:37;;;;;;;4.15;2.10;;;;;;;21.13;37.81;101220.77;1883462;76;21043;-63
2022/05/14 04:51:06;;;;;;;8.15;1.98;;;;;;;21.38;37.62;101216.23;1856594;77;21514;-65
2022/05/14 04:53:35;;;;;;;4.30;2.10;;;;;;;21.59;37.19;101213.23;1856436;77;21584;-65
2022/05/14 04:56:04;;;;;;;3.52;1.80;;;;;;;21.88;36.93;101210.09;1856524;77;21143;-63
2022/05/14 04:58:34;;;;;;;5.25;2.55;;;;;;;22.13;36.71;101206.78;1856800;77;21524;-64
2022/05/14 05:01:04;;;;;;;7.92;2.20;;;;;;;22.23;36.21;101208.25;1856610;77;21406;-65
2022/05/14 05:03:33;;;;;;;5.28;2.08;;;;;;;22.47;36.00;101208.11;1856793;77;21075;-65
2022/05/14 05:06:02;;;;;;;3.42;2.17;;;;;;;22.61;35.57;101202.47;1856646;77;21056;-65
2022/05/14 05:08:33;;;;;;;4.65;2.10;;;;;;;22.77;35.50;101199.34;1856532;77;21111;-63
2022/05/14 05:11:02;;;;;;;7.05;2.75;;;;;;;23.02;35.47;101200.83;1856599;77;21057;-64
2022/05/14 05:13:32;;;;;;;12.53;2.75;;;;;;;23.17;35.04;101195.18;1857801;77;21082;-63
2022/05/14 05:16:01;;;;;;;10.88;2.20;;;;;;;23.43;34.89;101187.56;1857789;77;21112;-63
2022/05/14 05:18:30;;;;;;;4.75;1.92;;;;;;;23.68;34.67;101185.78;1857693;77;21027;-63
2022/05/14 05:20:58;;;;;;;6.47;1.80;;;;;;;23.81;34.20;101185.59;1857681;77;21153;-63
2022/05/14 05:23:28;;;;;;;9.73;2.02;;;;;;;23.97;34.00;101182.87;1857799;77;21066;-65
2022/05/14 05:25:58;;;;;;;8.78;2.62;;;;;;;24.24;33.68;101181.75;1857893;77;21058;-65
2022/05/14 05:28:28;;;;;;;6.80;2.08;;;;;;;24.57;33.37;101181.06;1857796;77;21063;-64
2022/05/14 05:30:57;;;;;;;5.78;2.10;;;;;;;24.85;33.15;101178.52;1857808;77;21074;-63
2022/05/14 05:33:27;;;;;;;9.75;2.25;;;;;;;24.83;32.39;101171.92;1857591;77;21070;-64
2022/05/14 05:35:55;;;;;;;11.22;2.30;;;;;;;24.96;32.30;101177.02;1857728;77;21493;-64
2022/05/14 05:38:24;;;;;;;9.53;2.22;;;;;;;25.13;31.92;101169.20;1857785;77;21054;-64
2022/05/14 05:40:53;;;;;;;6.28;2.00;;;;;;;25.28;31.80;101159.69;1857759;77;21066;-65
2022/05/14 05:43:22;;;;;;;7.15;2.10;;;;;;;25.28;31.42;101161.03;1857828;77;21504;-65
2022/05/14 05:45:50;;;;;;;6.80;2.47;;;;;;;25.45;31.55;101157.23;1857538;77;21125;-65
2022/05/14 05:51:09;;;;;;;10.08;2.72;;;;;;;25.58;30.39;101155.92;1835003;78;21076;-65
2022/05/14 05:59:13;;;;;;;8.70;2.60;;;;;;;26.05;29.99;101135.28;1891322;76;21065;-66
2022/05/14 06:01:42;;;;;;;6.40;2.20;;;;;;;25.83;29.36;101129.77;1891384;76;21058;-66
2022/05/14 06:04:11;;;;;;;3.90;1.75;;;;;;;25.67;28.64;101125.00;1891386;76;21535;-65
2022/05/14 06:06:42;;;;;;;10.48;3.85;;;;;;;25.54;27.78;101124.00;1891306;76;21046;-66
2022/05/14 06:09:13;;;;;;;6.67;2.17;;;;;;;25.57;27.62;101121.02;1891354;76;20998;-64
2022/05/14 06:11:42;;;;;;;5.40;1.87;;;;;;;25.57;27.09;101114.27;1891472;76;21030;-65
2022/05/14 06:14:12;;;;;;;4.97;2.02;;;;;;;25.57;27.16;101118.31;1891599;76;21473;-65
2022/05/14 06:16:41;;;;;;;2.60;1.30;;;;;;;25.65;26.57;101118.41;1891551;76;21456;-64
2022/05/14 06:19:11;;;;;;;6.87;2.90;;;;;;;25.57;26.03;101119.66;1891372;76;21042;-65
2022/05/14 06:21:40;;;;;;;7.33;2.92;;;;;;;25.47;26.03;101109.41;1891568;76;21035;-66
2022/05/14 06:24:09;;;;;;;3.45;1.82;;;;;;;25.41;25.93;101107.64;1891418;76;21468;-65
2022/05/14 06:26:38;;;;;;;6.50;1.98;;;;;;;25.46;25.74;101101.83;1891509;76;21425;-65
2022/05/14 06:29:08;;;;;;;4.42;2.10;;;;;;;25.57;25.06;101103.48;1891597;76;21038;-65
2022/05/14 06:31:37;;;;;;;11.53;2.05;;;;;;;25.73;25.29;101090.20;1891379;76;21050;-64
2022/05/14 06:34:06;;;;;;;4.00;1.80;;;;;;;25.70;24.55;101086.45;1891357;76;21461;-66
2022/05/14 06:36:35;;;;;;;6.05;1.70;;;;;;;25.74;24.67;101079.75;1859758;77;21106;-65
2022/05/14 06:39:03;;;;;;;4.70;1.55;;;;;;;25.86;24.39;101078.19;1859693;77;21106;-66
2022/05/14 06:41:32;;;;;;;4.83;1.30;;;;;;;25.94;24.03;101076.98;1859780;77;21050;-66
2022/05/14 06:44:01;;;;;;;3.10;0.90;;;;;;;26.14;24.17;101073.14;1859644;77;21109;-64
2022/05/14 06:46:32;;;;;;;7.05;1.65;;;;;;;26.42;23.68;101072.22;1886084;76;21144;-64
2022/05/14 06:49:00;;;;;;;6.28;1.42;;;;;;;26.47;23.00;101071.26;1891510;76;21014;-65
2022/05/14 06:51:31;;;;;;;4.03;1.35;;;;;;;26.84;23.68;101073.77;1930970;73;21057;-66
2022/05/14 06:54:08;;;;;;;3.77;1.45;;;;;;;27.10;23.45;101063.45;1914336;75;21119;-65
2022/05/14 06:56:39;;;;;;;3.62;1.00;;;;;;;27.52;23.78;101058.11;1933489;74;21095;-65
2022/05/14 06:59:09;;;;;;;1.87;1.20;;;;;;;27.92;23.65;101048.95;1915446;75;21049;-64
2022/05/14 07:01:41;;;;;;;3.27;1.12;;;;;;;28.06;23.09;101041.53;1933469;74;22240;-66
2022/05/14 07:07:00;;;;;;;2.35;0.80;;;;;;;28.02;21.91;101017.18;1909726;74;21557;-64
2022/05/14 07:09:30;;;;;;;11.68;5.87;;;;;;;27.98;22.20;101007.71;1877896;76;21130;-63
2022/05/14 07:12:03;;;;;;;2.58;1.50;;;;;;;27.93;21.57;101000.59;1877884;76;21507;-62
2022/05/14 07:14:33;;;;;;;6.05;1.30;;;;;;;27.76;21.30;100996.13;1878043;76;21041;-64
2022/05/14 07:17:03;;;;;;;2.98;0.98;;;;;;;28.03;21.98;100992.30;1877950;76;21483;-62
2022/05/14 07:19:31;;;;;;;3.75;0.98;;;;;;;28.28;21.99;101001.29;1909723;74;21558;-64
2022/05/14 07:22:00;;;;;;;4.60;0.78;;;;;;;28.38;21.93;101004.65;1933592;74;21124;-68
2022/05/14 07:24:30;;;;;;;0.90;0.70;;;;;;;28.70;22.27;100993.49;1933666;74;21103;-61
2022/05/14 07:27:01;;;;;;;2.33;0.80;;;;;;;29.01;22.25;100991.34;1933578;74;21095;-62
2022/05/14 07:29:31;;;;;;;3.08;0.80;;;;;;;29.17;22.02;100994.55;1933637;74;21009;-64
2022/05/14 07:32:00;;;;;;;1.27;0.72;;;;;;;29.25;21.63;100993.14;1933470;74;21009;-64
2022/05/14 07:34:29;;;;;;;1.00;0.72;;;;;;;29.50;21.68;100993.05;1933612;74;21092;-65
2022/05/14 07:37:09;;;;;;;0.75;0.60;;;;;;;29.68;21.88;100996.81;1933539;74;21037;-65
2022/05/14 07:39:41;;;;;;;2.58;0.90;;;;;;;29.99;21.97;100986.81;1933964;72;21570;-66
2022/05/14 07:42:13;;;;;;;2.70;1.00;;;;;;;30.26;21.66;100986.42;1933583;74;21033;-62
2022/05/14 07:44:44;;;;;;;2.03;0.87;;;;;;;30.40;21.63;100981.05;1933839;74;21083;-62
2022/05/14 07:47:15;;;;;;;2.70;0.88;;;;;;;30.57;21.54;100979.53;1933547;74;21127;-66
2022/05/14 07:49:47;;;;;;;1.57;0.90;;;;;;;30.74;21.27;100984.27;1933592;74;21588;-66
2022/05/14 07:52:17;;;;;;;1.82;0.80;;;;;;;30.89;21.28;100985.63;1940382;73;21475;-66
2022/05/14 07:54:46;;;;;;;2.33;0.70;;;;;;;30.95;21.10;100972.17;1937664;74;21037;-66
2022/05/14 07:57:16;;;;;;;3.60;1.07;;;;;;;30.90;20.95;100978.66;1884331;76;21210;-65
2022/05/14 07:59:44;;;;;;;1.12;0.70;;;;;;;31.13;20.81;100979.95;1884384;76;21581;-64
2022/05/14 08:02:26;;;;;;;1.12;0.80;;;;;;;31.27;20.76;100982.83;1884328;75;21065;-64
2022/05/14 08:04:55;;;;;;;;;;;;;;;31.46;20.70;100977.30;1887119;75;21150;-64
2022/05/14 08:07:24;;;;;;;1.62;0.80;;;;;;;31.72;20.96;100977.62;1851033;77;20490;-65
2022/05/14 08:09:53;;;;;;;1.80;0.90;;;;;;;31.82;20.65;100967.77;1884466;76;21085;-64
2022/05/14 08:12:21;;;;;;;1.15;0.85;;;;;;;31.83;20.68;100960.44;1820602;77;21537;-64
2022/05/14 08:14:50;;;;;;;1.57;1.00;;;;;;;31.93;20.47;100960.44;1884337;76;21139;-65
2022/05/14 08:17:19;;;;;;;1.15;0.80;;;;;;;32.02;19.85;100961.16;1851000;77;21094;-64
2022/05/14 08:19:48;;;;;;;1.77;0.70;;;;;;;31.80;19.51;100959.45;1884366;76;21021;-64
2022/05/14 08:25:03;;;;;;;2.62;0.78;;;;;;;31.40;18.32;100958.50;1884348;76;21522;-60
2022/05/14 08:27:32;;;;;;;2.05;1.05;;;;;;;31.31;18.99;100953.68;1851154;77;21063;-61
2022/05/14 08:30:00;;;;;;;0.95;0.70;;;;;;;31.33;18.78;100952.13;1884351;76;21045;-60
2022/05/14 08:32:29;;;;;;;3.52;0.88;;;;;;;31.22;18.27;100958.07;1850893;77;21125;-60
2022/05/14 08:34:57;;;;;;;1.47;0.80;;;;;;;31.25;17.99;100950.38;1884325;76;21111;-60
2022/05/14 08:37:26;;;;;;;2.60;0.70;;;;;;;31.17;17.52;100951.33;1850977;77;21075;-61
2022/05/14 08:39:55;;;;;;;0.88;0.75;;;;;;;30.99;17.35;100949.53;1884383;76;21096;-61
2022/05/14 08:42:24;;;;;;;1.15;1.05;;;;;;;30.77;16.48;100944.50;1851029;77;21051;-62
2022/05/14 08:44:53;;;;;;;2.50;0.72;;;;;;;30.85;16.29;100940.84;1884276;76;21057;-62
2022/05/14 08:47:33;;;;;;;1.52;0.50;;;;;;;30.60;13.92;100928.37;1850954;77;21140;-63
2022/05/14 08:50:04;;;;;;;5.17;0.60;;;;;;;30.67;13.98;100942.04;1884398;76;21482;-62
2022/05/14 08:52:35;;;;;;;2.45;0.68;;;;;;;30.55;13.32;100938.13;1871052;76;21072;-62
2022/05/14 08:55:07;;;;;;;0.80;0.60;;;;;;;30.62;12.77;100934.98;1940242;74;21036;-62
2022/05/14 08:57:44;;;;;;;1.22;0.80;;;;;;;30.32;11.36;100937.65;1939056;74;21435;-63
2022/05/14 09:00:14;;;;;;;1.67;0.60;;;;;;;29.96;11.46;100953.75;1938647;74;21053;-63
2022/05/14 09:02:51;;;;;;;1.50;0.50;;;;;;;30.07;11.56;100951.13;1924634;74;21016;-61
2022/05/14 09:05:22;;;;;;;1.00;0.50;;;;;;;30.17;12.12;100941.66;1940012;74;21021;-62
2022/05/14 09:07:52;;;;;;;1.55;0.72;;;;;;;30.32;11.68;100936.30;1939968;74;21001;-62
2022/05/14 09:10:30;;;;;;;0.50;0.50;;;;;;;30.35;12.02;100941.37;1940032;73;21456;-60
2022/05/14 09:13:05;;;;;;;2.17;0.62;;;;;;;30.07;11.00;100942.98;1940105;74;21013;-59
2022/05/14 09:15:35;;;;;;;0.80;0.47;;;;;;;29.81;11.12;100945.56;1939190;74;21147;-62
2022/05/14 09:18:09;;;;;;;0.85;0.60;;;;;;;29.53;11.32;100941.99;1940197;74;21103;-62
2022/05/14 09:20:47;;;;;;;2.05;0.68;;;;;;;29.40;11.88;100947.13;1937123;74;21491;-62
2022/05/14 09:23:27;;;;;;;0.62;0.62;;;;;;;29.30;11.04;100948.72;1904179;75;21045;-61
2022/05/14 09:25:56;;;;;;;0.93;0.60;;;;;;;28.99;11.36;100944.60;1924090;74;21029;-61
2022/05/14 09:28:39;;;;;;;2.50;0.60;;;;;;;28.57;11.21;100936.27;1940045;74;21084;-63
2022/05/14 09:31:09;;;;;;;2.65;0.80;;;;;;;28.45;11.76;100939.83;1940329;73;21132;-63
2022/05/14 09:33:40;;;;;;;1.70;0.70;;;;;;;28.42;12.02;100925.27;1940170;74;21529;-63
2022/05/14 09:36:22;;;;;;;1.05;0.50;;;;;;;28.50;12.38;100942.36;1940090;74;21041;-63
2022/05/14 09:38:54;;;;;;;1.85;0.70;;;;;;;28.34;11.77;100932.91;1940054;74;21529;-63
2022/05/14 09:41:24;;;;;;;0.50;0.50;;;;;;;28.24;12.23;100933.61;1939915;73;21014;-64
2022/05/14 09:43:55;;;;;;;1.00;0.65;;;;;;;28.35;12.79;100930.55;1940179;74;21049;-63
2022/05/14 09:46:34;;;;;;;0.72;0.50;;;;;;;28.37;12.01;100926.28;1940210;74;21123;-63
2022/05/14 09:49:08;;;;;;;2.65;0.57;;;;;;;28.37;12.58;100908.20;1940326;74;21484;-63
2022/05/14 09:51:39;;;;;;;1.62;0.80;;;;;;;28.36;12.54;100924.61;1939450;74;21107;-63
2022/05/14 09:54:23;;;;;;;4.30;0.80;;;;;;;28.35;12.94;100933.25;1932231;72;21110;-64
2022/05/14 09:57:12;;;;;;;0.68;0.60;;;;;;;28.29;12.43;100933.44;1933701;74;21037;-63
2022/05/14 10:00:02;;;;;;;1.98;0.60;;;;;;;28.11;13.07;100928.20;1934239;72;21021;-63
2022/05/14 10:02:50;;;;;;;1.90;0.70;;;;;;;28.13;13.62;100924.46;1935784;72;21048;-63
2022/05/14 10:05:32;;;;;;;3.05;0.90;;;;;;;28.11;13.39;100925.49;1933822;72;21053;-63
2022/05/14 10:08:21;;;;;;;1.95;0.80;;;;;;;28.08;13.44;100913.64;1933667;74;21030;-63
2022/05/14 10:11:08;;;;;;;0.70;0.60;;;;;;;28.25;14.06;100914.98;1933914;74;21533;-63
2022/05/14 10:13:43;;;;;;;1.27;0.75;;;;;;;28.31;13.94;100915.64;1933734;72;21109;-63
2022/05/14 10:16:14;;;;;;;1.40;0.88;;;;;;;28.17;13.73;100920.42;1932763;74;21038;-63
2022/05/14 10:19:10;;;;;;;2.30;0.60;;;;;;;27.96;14.19;100913.67;1934374;72;21089;-63
2022/05/14 10:22:13;;;;;;;1.77;0.65;;;;;;;27.92;14.44;100904.17;1934790;72;21491;-63
2022/05/14 10:27:55;;;;;;;0.65;0.50;;;;;;;27.58;14.62;100911.91;1933757;74;21022;-63
2022/05/14 10:30:29;;;;;;;0.95;0.70;;;;;;;27.51;14.58;100910.89;1933407;74;21042;-63
2022/05/14 10:33:02;;;;;;;1.45;0.90;;;;;;;27.37;14.59;100916.94;1936668;72;21452;-63
2022/05/14 10:35:47;;;;;;;1.55;0.60;;;;;;;27.31;14.70;100919.28;1933440;72;21037;-63
2022/05/14 10:38:19;;;;;;;0.80;0.50;;;;;;;27.33;14.46;100914.59;1933710;74;21088;-64
2022/05/14 10:40:53;;;;;;;1.17;0.60;;;;;;;27.04;14.26;100916.80;1933789;72;21034;-62
2022/05/14 10:43:40;;;;;;;2.90;0.60;;;;;;;26.94;14.63;100913.73;1933608;74;21005;-62
2022/05/14 10:46:11;;;;;;;2.00;0.70;;;;;;;26.73;14.28;100916.85;1933578;74;21471;-62
2022/05/14 10:49:02;;;;;;;0.57;0.50;;;;;;;26.55;14.04;100917.40;1933610;74;21118;-62
2022/05/14 10:51:33;;;;;;;5.00;0.90;;;;;;;26.45;14.65;100914.82;1933716;74;21155;-62
2022/05/14 10:54:04;;;;;;;1.07;0.60;;;;;;;26.29;14.30;100930.91;1939212;74;21053;-62
2022/05/14 10:56:38;;;;;;;1.50;0.60;;;;;;;25.99;14.28;100919.55;1940230;74;21037;-62
2022/05/14 10:59:11;;;;;;;1.75;0.62;;;;;;;25.73;14.57;100925.70;1941366;72;21171;-62
2022/05/14 11:01:56;;;;;;;0.62;0.60;;;;;;;25.41;14.87;100923.00;1940143;73;21093;-62
2022/05/14 11:04:28;;;;;;;1.22;0.53;;;;;;;25.23;15.13;100930.19;1939780;74;21009;-62
2022/05/14 11:07:00;;;;;;;1.10;0.88;;;;;;;25.03;15.20;100924.92;1940044;73;21553;-62
2022/05/14 11:09:47;;;;;;;2.58;0.70;;;;;;;25.14;15.64;100931.09;1940143;74;21509;-61
2022/05/14 11:12:21;;;;;;;3.00;0.70;;;;;;;25.15;15.13;100926.90;1940268;74;21024;-62
2022/05/14 11:14:53;;;;;;;0.60;0.53;;;;;;;25.11;15.10;100926.02;1939120;74;21560;-62
2022/05/14 11:17:27;;;;;;;2.65;0.80;;;;;;;25.02;15.44;100930.45;1939834;73;21005;-62
2022/05/14 11:20:11;;;;;;;6.20;0.55;;;;;;;24.96;15.51;100927.02;1939896;73;21483;-62
2022/05/14 11:22:45;;;;;;;1.00;0.50;;;;;;;24.94;15.21;100931.20;1940169;74;21511;-62
2022/05/14 11:25:22;;;;;;;1.10;0.60;;;;;;;24.79;14.11;100916.55;1939983;73;21017;-62
2022/05/14 11:28:06;;;;;;;1.05;0.70;;;;;;;24.84;14.51;100930.39;1940211;74;21096;-62
2022/05/14 11:30:50;;;;;;;0.50;0.50;;;;;;;24.97;14.81;100920.62;1940149;74;21479;-63
2022/05/14 11:33:31;;;;;;;2.12;0.55;;;;;;;25.15;15.03;100918.81;1939980;73;21568;-62
2022/05/14 11:36:14;;;;;;;0.72;0.50;;;;;;;25.18;14.40;100929.81;1940039;74;21099;-60
2022/05/14 11:38:47;;;;;;;0.55;0.50;;;;;;;25.18;14.09;100924.42;1939719;74;21033;-60
2022/05/14 11:41:16;;;;;;;;;;;;;;;25.23;15.10;100927.05;1943125;73;21033;-60
2022/05/14 11:43:48;;;;;;;1.85;0.60;;;;;;;25.22;14.79;100929.34;1942117;73;20097;-60
2022/05/14 11:46:32;;;;;;;2.23;0.60;;;;;;;24.93;14.70;100916.02;1940282;74;21048;-61
2022/05/14 11:49:21;;;;;;;1.05;0.70;;;;;;;24.59;15.29;100925.19;1940333;74;21005;-60
2022/05/14 11:52:02;;;;;;;2.80;0.80;;;;;;;24.35;14.87;100926.99;1940256;74;21119;-60
2022/05/14 11:54:34;;;;;;;1.72;0.50;;;;;;;24.01;15.10;100932.83;1939987;73;21155;-61
2022/05/14 11:57:17;;;;;;;8.43;1.00;;;;;;;23.93;15.31;100924.13;1940609;72;21037;-60
2022/05/14 12:00:06;;;;;;;1.42;0.50;;;;;;;23.89;15.30;100930.28;1940249;72;21115;-60
2022/05/14 12:02:55;;;;;;;0.55;0.33;;;;;;;23.93;15.60;100924.64;1938720;74;21074;-60
2022/05/14 12:05:29;;;;;;;1.60;0.75;;;;;;;24.03;15.81;100925.45;1940245;74;21025;-60
2022/05/14 12:08:16;;;;;;;2.27;0.55;;;;;;;24.35;16.20;100929.68;1940070;73;21033;-60
2022/05/14 12:10:50;;;;;;;0.98;0.70;;;;;;;24.58;15.93;100939.12;1941493;72;21515;-60
2022/05/14 12:13:31;;;;;;;5.58;0.70;;;;;;;24.74;15.81;100929.59;1940039;74;21041;-61